Time;durP1;ratioP1;P1;durP2;ratioP2;P2;SDS_P1;SDS_P2;PMS_P1;PMS_P2;Temp;Humidity;BMP_temperature;BMP_pressure;BME280_temperature;BME280_humidity;BME280_pressure;Samples;Min_cycle;Max_cycle;Signal;HPM_P1;HPM_P2
2022/12/01 00:01:10;;;;;;;64.87;31.50;;;1.90;99.90;;;;;;5076726;28;20269;-78
2022/12/01 00:03:38;;;;;;;67.33;29.83;;;1.90;99.90;;;;;;5075275;28;20221;-76
2022/12/01 00:06:07;;;;;;;66.13;30.87;;;1.90;99.90;;;;;;5085019;28;20195;-75
2022/12/01 00:08:34;;;;;;;69.27;31.40;;;1.90;99.90;;;;;;5080840;28;20646;-77
2022/12/01 00:11:05;;;;;;;61.93;27.33;;;1.90;99.90;;;;;;5086181;28;20669;-76
2022/12/01 00:13:33;;;;;;;67.57;30.17;;;1.90;99.90;;;;;;5089016;28;20193;-75
2022/12/01 00:16:10;;;;;;;62.97;29.60;;;1.80;99.90;;;;;;5074595;28;20632;-75
2022/12/01 00:18:37;;;;;;;57.27;27.90;;;1.80;99.90;;;;;;5077420;28;20191;-78
2022/12/01 00:21:04;;;;;;;49.27;24.50;;;1.90;99.90;;;;;;5074404;28;20227;-77
2022/12/01 00:23:31;;;;;;;60.20;26.80;;;1.80;14.30;;;;;;5078684;28;20206;-74
2022/12/01 00:26:04;;;;;;;57.67;28.87;;;1.70;1.00;;;;;;5080144;28;20211;-75
2022/12/01 00:28:32;;;;;;;60.53;28.10;;;1.70;35.10;;;;;;5074327;28;20200;-75
2022/12/01 00:30:59;;;;;;;60.80;28.23;;;1.70;44.50;;;;;;5074353;28;20200;-75
2022/12/01 00:33:26;;;;;;;62.37;29.97;;;1.70;27.90;;;;;;5074499;28;20280;-75
2022/12/01 00:35:59;;;;;;;59.27;28.27;;;1.60;31.90;;;;;;5074276;28;20197;-77
2022/12/01 00:38:26;;;;;;;55.90;27.20;;;1.60;13.20;;;;;;5074154;28;20539;-75
2022/12/01 00:40:53;;;;;;;56.27;26.77;;;1.60;58.90;;;;;;5074141;28;20247;-75
2022/12/01 00:43:21;;;;;;;53.23;25.87;;;1.60;99.90;;;;;;5074293;28;20201;-75
2022/12/01 00:45:48;;;;;;;54.23;27.03;;;1.60;91.70;;;;;;5072788;28;20201;-75
2022/12/01 00:48:15;;;;;;;56.67;27.17;;;1.60;43.60;;;;;;5074184;28;20215;-75
2022/12/01 00:50:43;;;;;;;59.20;26.97;;;1.60;33.80;;;;;;5073803;28;20233;-77
2022/12/01 00:53:10;;;;;;;58.63;28.23;;;1.60;96.80;;;;;;5074211;28;20221;-75
2022/12/01 00:55:39;;;;;;;55.80;27.27;;;1.60;65.60;;;;;;5074466;28;20189;-76
2022/12/01 00:58:06;;;;;;;57.10;28.23;;;1.70;53.80;;;;;;5074007;28;20247;-74
2022/12/01 01:00:37;;;;;;;53.50;26.40;;;1.70;17.50;;;;;;5093528;28;20261;-75
2022/12/01 01:03:04;;;;;;;54.30;27.27;;;1.70;20.40;;;;;;5073820;28;20199;-77
2022/12/01 01:05:36;;;;;;;53.67;26.43;;;1.70;12.90;;;;;;5081623;28;20704;-75
2022/12/01 01:08:07;;;;;;;50.87;25.87;;;1.70;40.20;;;;;;5081316;28;20698;-75
2022/12/01 01:10:34;;;;;;;53.67;25.90;;;1.70;1.00;;;;;;5084574;28;20277;-75
2022/12/01 01:13:01;;;;;;;50.13;25.47;;;1.80;1.00;;;;;;5081637;28;20232;-75
2022/12/01 01:15:28;;;;;;;52.40;25.00;;;1.70;1.00;;;;;;5076838;28;20197;-75
2022/12/01 01:17:56;;;;;;;53.00;25.93;;;1.70;1.00;;;;;;5084127;28;20186;-75
2022/12/01 01:20:23;;;;;;;54.43;25.60;;;1.70;1.00;;;;;;5073405;28;20700;-75
2022/12/01 01:22:50;;;;;;;52.53;25.50;;;1.70;1.00;;;;;;5073275;28;20189;-75
2022/12/01 01:25:17;;;;;;;50.80;25.63;;;1.70;1.00;;;;;;5073389;28;20205;-76
2022/12/01 01:27:45;;;;;;;46.87;23.23;;;1.70;1.00;;;;;;5073241;28;20686;-75
2022/12/01 01:30:13;;;;;;;50.13;25.23;;;1.70;1.00;;;;;;5073653;28;20243;-74
2022/12/01 01:32:40;;;;;;;50.97;25.20;;;1.70;1.00;;;;;;5073128;28;20616;-79
2022/12/01 01:35:09;;;;;;;49.43;24.43;;;1.70;1.00;;;;;;5073287;28;20251;-76
2022/12/01 01:37:36;;;;;;;47.07;23.87;;;1.70;1.00;;;;;;5073099;28;20193;-75
2022/12/01 01:40:04;;;;;;;50.20;24.70;;;1.70;1.00;;;;;;5081159;28;20196;-76
2022/12/01 01:42:31;;;;;;;53.93;25.23;;;1.70;1.00;;;;;;5075434;28;20345;-75
2022/12/01 01:44:59;;;;;;;46.63;23.47;;;1.70;1.00;;;;;;5081271;28;20220;-79
2022/12/01 01:47:30;;;;;;;51.17;25.87;;;1.70;1.00;;;;;;5078553;28;20581;-75
2022/12/01 01:50:05;;;;;;;47.33;24.53;;;1.70;1.00;;;;;;5072763;28;20224;-75
2022/12/01 01:52:34;;;;;;;51.93;24.80;;;1.70;1.00;;;;;;5072792;28;20188;-76
2022/12/01 01:55:01;;;;;;;46.80;24.37;;;1.80;1.00;;;;;;5072911;28;20194;-75
2022/12/01 01:57:30;;;;;;;49.27;25.50;;;1.80;1.00;;;;;;5072730;28;20201;-74
2022/12/01 02:00:02;;;;;;;47.77;24.37;;;1.80;1.00;;;;;;5072359;28;20603;-75
2022/12/01 02:02:30;;;;;;;54.10;25.53;;;1.90;1.00;;;;;;5078793;28;20195;-75
2022/12/01 02:05:01;;;;;;;49.03;25.33;;;1.90;1.00;;;;;;5073003;28;20254;-75
2022/12/01 02:07:28;;;;;;;47.30;23.77;;;1.90;1.00;;;;;;5085150;28;20206;-75
2022/12/01 02:09:57;;;;;;;46.90;24.47;;;1.80;1.00;;;;;;5072405;28;20206;-74
2022/12/01 02:12:38;;;;;;;48.13;24.03;;;1.90;1.00;;;;;;5078703;28;20247;-76
2022/12/01 02:15:23;;;;;;;45.90;23.40;;;1.90;1.00;;;;;;5072440;28;20208;-75
2022/12/01 02:18:04;;;;;;;46.00;22.57;;;1.90;1.00;;;;;;5072532;28;20182;-78
2022/12/01 02:20:49;;;;;;;45.07;22.37;;;2.00;1.00;;;;;;5072168;28;20200;-75
2022/12/01 02:23:36;;;;;;;47.37;22.17;;;1.90;1.00;;;;;;5072706;28;20202;-75
2022/12/01 02:26:20;;;;;;;46.23;23.27;;;1.90;1.00;;;;;;5072141;28;20208;-75
2022/12/01 02:29:06;;;;;;;45.63;23.10;;;1.90;1.00;;;;;;5086826;28;20211;-75
2022/12/01 02:31:43;;;;;;;46.03;24.13;;;1.90;1.00;;;;;;5089332;28;20195;-75
2022/12/01 02:34:17;;;;;;;42.57;21.60;;;1.90;1.00;;;;;;5072022;28;20200;-75
2022/12/01 02:36:51;;;;;;;45.63;23.57;;;1.80;1.00;;;;;;5079537;28;20574;-75
2022/12/01 02:39:28;;;;;;;41.37;22.20;;;1.90;1.00;;;;;;5078486;28;20214;-75
2022/12/01 02:42:03;;;;;;;45.23;23.40;;;1.90;1.00;;;;;;5071923;28;20643;-76
2022/12/01 02:44:35;;;;;;;46.77;23.67;;;1.90;1.00;;;;;;5076970;28;20250;-75
2022/12/01 02:47:09;;;;;;;45.53;22.97;;;1.90;1.00;;;;;;5084893;28;20206;-74
2022/12/01 02:49:40;;;;;;;44.13;22.27;;;1.90;1.00;;;;;;5071777;28;20636;-78
2022/12/01 02:52:08;;;;;;;45.23;22.13;;;1.90;1.00;;;;;;5071846;28;20193;-78
2022/12/01 02:54:36;;;;;;;44.17;22.50;;;2.00;1.00;;;;;;5072039;28;20223;-75
2022/12/01 02:57:04;;;;;;;47.47;22.87;;;2.00;1.00;;;;;;5071716;28;20198;-75
2022/12/01 02:59:31;;;;;;;40.37;21.13;;;2.00;1.00;;;;;;5079137;28;20196;-75
2022/12/01 03:02:11;;;;;;;43.30;21.37;;;2.00;1.00;;;;;;5075030;28;20191;-75
2022/12/01 03:04:46;;;;;;;43.53;22.47;;;2.00;1.00;;;;;;5080232;28;20189;-75
2022/12/01 03:07:26;;;;;;;42.03;21.87;;;2.00;1.00;;;;;;5071861;28;20561;-76
2022/12/01 03:10:03;;;;;;;42.83;22.30;;;2.00;1.00;;;;;;5073889;28;20201;-78
2022/12/01 03:12:38;;;;;;;44.13;21.87;;;2.00;1.00;;;;;;5076021;28;20200;-75
2022/12/01 03:15:10;;;;;;;42.27;21.60;;;2.00;1.00;;;;;;5076069;28;20250;-75
2022/12/01 03:17:43;;;;;;;42.23;21.87;;;2.00;1.00;;;;;;5081467;28;20236;-76
2022/12/01 03:20:16;;;;;;;45.87;22.77;;;2.00;1.00;;;;;;5082215;28;20203;-75
2022/12/01 03:22:49;;;;;;;42.07;21.97;;;2.00;1.00;;;;;;5088930;28;20191;-75
2022/12/01 03:25:18;;;;;;;40.17;20.67;;;2.00;1.00;;;;;;5075965;28;20194;-75
2022/12/01 03:27:47;;;;;;;43.23;20.50;;;2.10;1.00;;;;;;5075479;28;20245;-76
2022/12/01 03:30:16;;;;;;;42.87;21.80;;;2.10;1.00;;;;;;5075286;28;20200;-75
2022/12/01 03:32:48;;;;;;;39.43;21.30;;;2.10;1.00;;;;;;5075463;28;20532;-75
2022/12/01 03:35:19;;;;;;;40.50;21.23;;;2.10;1.00;;;;;;5075607;28;20194;-77
2022/12/01 03:37:52;;;;;;;41.77;21.67;;;2.10;1.00;;;;;;5089678;28;20269;-78
2022/12/01 03:40:24;;;;;;;40.57;20.50;;;2.10;1.00;;;;;;5075654;28;20222;-75
2022/12/01 03:42:55;;;;;;;43.67;21.43;;;2.10;1.00;;;;;;5075526;28;20284;-75
2022/12/01 03:45:34;;;;;;;42.77;22.07;;;2.10;1.00;;;;;;5075486;28;20194;-75
2022/12/01 03:48:03;;;;;;;40.17;20.20;;;2.10;1.00;;;;;;5074909;28;20201;-76
2022/12/01 03:50:36;;;;;;;42.47;21.73;;;2.10;1.00;;;;;;5079316;28;20221;-75
2022/12/01 03:53:11;;;;;;;42.57;21.37;;;2.10;1.00;;;;;;5077997;28;20610;-75
2022/12/01 03:55:42;;;;;;;42.43;22.20;;;2.10;1.00;;;;;;5074871;28;20217;-75
2022/12/01 03:58:13;;;;;;;42.97;21.70;;;2.10;1.00;;;;;;5088934;28;20212;-75
2022/12/01 04:00:42;;;;;;;41.37;20.80;;;2.10;1.00;;;;;;5080153;28;20200;-75
2022/12/01 04:03:18;;;;;;;42.13;21.47;;;2.10;1.00;;;;;;5078265;28;20228;-75
2022/12/01 04:05:45;;;;;;;39.43;21.27;;;2.10;1.00;;;;;;5080387;28;20268;-78
2022/12/01 04:08:12;;;;;;;37.10;20.17;;;2.10;1.00;;;;;;5093195;28;20212;-76
2022/12/01 04:10:39;;;;;;;37.13;19.93;;;2.20;1.00;;;;;;5074912;28;20255;-77
2022/12/01 04:13:10;;;;;;;39.20;19.40;;;2.10;1.00;;;;;;5074713;28;20209;-77
2022/12/01 04:15:37;;;;;;;38.83;20.03;;;2.20;1.00;;;;;;5081590;28;20189;-75
2022/12/01 04:18:05;;;;;;;39.70;20.27;;;2.20;1.00;;;;;;5081739;28;20536;-75
2022/12/01 04:20:33;;;;;;;40.90;21.13;;;2.10;1.00;;;;;;5074294;28;20247;-73
2022/12/01 04:23:00;;;;;;;35.40;19.40;;;2.10;1.00;;;;;;5075614;28;20272;-76
2022/12/01 04:25:27;;;;;;;38.33;18.87;;;2.20;1.00;;;;;;5088447;28;20190;-75
2022/12/01 04:27:54;;;;;;;40.30;20.40;;;2.10;1.00;;;;;;5074584;28;20225;-78
2022/12/01 04:30:22;;;;;;;40.70;21.13;;;2.10;1.00;;;;;;5074364;28;20202;-75
2022/12/01 04:32:49;;;;;;;40.07;20.60;;;2.10;1.00;;;;;;5074285;28;20649;-75
2022/12/01 04:35:16;;;;;;;40.40;20.03;;;2.10;1.00;;;;;;5076657;28;20200;-76
2022/12/01 04:37:44;;;;;;;38.63;20.00;;;2.20;99.90;;;;;;5087994;28;20193;-78
2022/12/01 04:40:12;;;;;;;38.80;19.83;;;2.10;99.90;;;;;;5088614;28;20193;-78
2022/12/01 04:42:39;;;;;;;40.70;20.20;;;2.20;1.00;;;;;;5082360;28;20189;-77
2022/12/01 04:45:07;;;;;;;38.40;20.20;;;2.20;99.90;;;;;;5074350;28;20198;-74
2022/12/01 04:47:34;;;;;;;41.63;19.70;;;2.20;99.90;;;;;;5088466;28;20226;-75
2022/12/01 04:50:01;;;;;;;41.30;20.67;;;2.20;99.90;;;;;;5087931;28;20694;-75
2022/12/01 04:52:28;;;;;;;38.50;20.07;;;2.20;99.90;;;;;;5080834;28;20205;-77
2022/12/01 04:54:57;;;;;;;40.47;20.83;;;2.20;99.90;;;;;;5074263;28;20602;-74
2022/12/01 04:57:24;;;;;;;35.53;19.13;;;2.20;99.90;;;;;;5083028;28;20594;-75
2022/12/01 04:59:51;;;;;;;41.50;20.70;;;2.20;99.90;;;;;;5079238;28;20186;-77
2022/12/01 05:02:18;;;;;;;40.20;20.50;;;2.20;99.90;;;;;;5074067;28;20199;-75
2022/12/01 05:04:46;;;;;;;37.50;19.47;;;2.20;99.90;;;;;;5074825;28;20202;-75
2022/12/01 05:07:14;;;;;;;36.90;19.50;;;2.20;99.90;;;;;;5093358;28;20276;-75
2022/12/01 05:09:41;;;;;;;39.77;20.63;;;2.30;99.90;;;;;;5079903;28;20288;-78
2022/12/01 05:12:09;;;;;;;39.63;20.50;;;2.20;99.90;;;;;;5073463;28;20198;-76
2022/12/01 05:14:36;;;;;;;41.27;20.23;;;2.30;99.90;;;;;;5080901;28;20196;-74
2022/12/01 05:17:03;;;;;;;35.73;19.60;;;2.20;99.90;;;;;;5087511;28;20192;-75
2022/12/01 05:22:14;;;;;;;35.27;18.73;;;2.20;99.90;;;;;;5073212;28;20700;-77
2022/12/01 05:24:41;;;;;;;35.40;18.70;;;2.20;99.90;;;;;;5073494;28;20206;-75
2022/12/01 05:27:10;;;;;;;38.93;19.93;;;2.20;99.90;;;;;;5073057;28;20207;-75
2022/12/01 05:29:37;;;;;;;41.60;19.73;;;2.20;99.90;;;;;;5075232;28;20213;-79
2022/12/01 05:32:04;;;;;;;37.97;20.13;;;2.30;99.90;;;;;;5072809;28;20202;-76
2022/12/01 05:34:31;;;;;;;35.70;18.50;;;2.30;99.90;;;;;;5081531;28;20203;-75
2022/12/01 05:36:58;;;;;;;35.67;18.97;;;2.30;99.90;;;;;;5089521;28;20222;-75
2022/12/01 05:39:25;;;;;;;35.77;18.10;;;2.30;99.90;;;;;;5076379;28;20200;-75
2022/12/01 05:41:52;;;;;;;37.53;19.87;;;2.30;99.90;;;;;;5073222;28;20254;-74
2022/12/01 05:44:21;;;;;;;35.40;18.83;;;2.30;99.90;;;;;;5073005;28;20289;-74
2022/12/01 05:46:48;;;;;;;35.17;19.07;;;2.30;99.90;;;;;;5080332;28;20193;-75
2022/12/01 05:49:15;;;;;;;37.90;19.93;;;2.30;99.90;;;;;;5080435;28;20690;-75
2022/12/01 05:51:43;;;;;;;37.10;19.00;;;2.20;99.90;;;;;;5072603;28;20622;-76
2022/12/01 05:54:10;;;;;;;33.63;17.40;;;2.20;99.90;;;;;;5072598;28;20197;-75
2022/12/01 05:56:37;;;;;;;37.00;19.47;;;2.20;99.90;;;;;;5072757;28;20193;-77
2022/12/01 05:59:04;;;;;;;38.87;20.53;;;2.20;99.90;;;;;;5072954;28;20196;-74
2022/12/01 06:01:32;;;;;;;38.70;20.20;;;2.20;99.90;;;;;;5074403;28;20213;-77
2022/12/01 06:03:59;;;;;;;37.80;18.50;;;2.20;99.90;;;;;;5084083;28;20193;-76
2022/12/01 06:06:26;;;;;;;39.53;19.83;;;2.20;99.90;;;;;;5072897;28;20226;-74
2022/12/01 06:08:53;;;;;;;36.73;19.43;;;2.20;99.90;;;;;;5072610;28;20208;-75
2022/12/01 06:11:20;;;;;;;37.33;18.70;;;2.20;99.90;;;;;;5072598;28;20210;-74
2022/12/01 06:13:47;;;;;;;38.30;19.97;;;2.20;99.90;;;;;;5078464;28;20189;-74
2022/12/01 06:16:14;;;;;;;35.83;19.13;;;2.20;99.90;;;;;;5079665;28;20271;-77
2022/12/01 06:18:43;;;;;;;35.73;19.37;;;2.20;99.90;;;;;;5081703;28;20190;-76
2022/12/01 06:21:10;;;;;;;39.80;19.57;;;2.20;99.90;;;;;;5083027;28;20198;-74
2022/12/01 06:23:37;;;;;;;38.70;19.87;;;2.20;99.90;;;;;;5075527;28;20206;-78
2022/12/01 06:26:04;;;;;;;34.37;19.13;;;2.20;99.90;;;;;;5072442;28;20243;-75
2022/12/01 06:28:31;;;;;;;38.63;18.87;;;2.30;99.90;;;;;;5072028;28;20213;-76
2022/12/01 06:30:59;;;;;;;40.10;19.70;;;2.20;99.90;;;;;;5072456;28;20211;-75
2022/12/01 06:33:26;;;;;;;36.50;18.87;;;2.20;99.90;;;;;;5071987;28;20204;-74
2022/12/01 06:35:59;;;;;;;35.37;19.17;;;2.20;99.90;;;;;;5073668;28;20190;-77
2022/12/01 06:38:27;;;;;;;40.53;20.37;;;2.20;99.90;;;;;;5083608;28;20192;-75
2022/12/01 06:40:54;;;;;;;36.23;19.23;;;2.20;99.90;;;;;;5071925;28;20203;-79
2022/12/01 06:43:21;;;;;;;36.70;19.90;;;2.30;99.90;;;;;;5079035;28;20552;-79
2022/12/01 06:45:48;;;;;;;37.63;19.67;;;2.30;99.90;;;;;;5078311;28;20284;-76
2022/12/01 06:48:15;;;;;;;36.57;18.63;;;2.30;99.90;;;;;;5071747;28;20214;-75
2022/12/01 06:50:42;;;;;;;35.83;19.73;;;2.20;99.90;;;;;;5071691;28;20231;-75
2022/12/01 06:53:11;;;;;;;35.93;19.30;;;2.20;99.90;;;;;;5071740;28;20203;-75
2022/12/01 06:55:38;;;;;;;39.33;19.43;;;2.20;99.90;;;;;;5071950;28;20226;-75
2022/12/01 06:58:06;;;;;;;37.83;18.87;;;2.20;99.90;;;;;;5071810;28;20206;-75
2022/12/01 07:00:33;;;;;;;35.47;18.40;;;2.30;99.90;;;;;;5071524;28;20196;-75
2022/12/01 07:03:00;;;;;;;37.80;18.80;;;2.30;99.90;;;;;;5072019;28;20196;-75
2022/12/01 07:05:27;;;;;;;34.47;18.83;;;2.30;99.90;;;;;;5071534;28;20206;-75
2022/12/01 07:07:54;;;;;;;34.40;17.93;;;2.30;99.90;;;;;;5071775;28;20206;-77
2022/12/01 07:10:22;;;;;;;37.90;19.03;;;2.30;99.90;;;;;;5071716;28;20199;-74
2022/12/01 07:12:49;;;;;;;37.43;18.67;;;2.30;99.90;;;;;;5083669;28;20665;-75
2022/12/01 07:15:16;;;;;;;37.93;19.17;;;2.30;99.90;;;;;;5073562;28;20203;-77
2022/12/01 07:17:43;;;;;;;36.47;19.27;;;2.40;99.90;;;;;;5071760;28;20201;-75
2022/12/01 07:20:11;;;;;;;36.50;18.33;;;2.40;99.90;;;;;;5071240;28;20652;-77
2022/12/01 07:22:38;;;;;;;36.57;19.70;;;2.40;99.90;;;;;;5080169;28;20202;-76
2022/12/01 07:25:07;;;;;;;39.27;19.90;;;2.40;99.90;;;;;;5076343;28;20688;-75
2022/12/01 07:27:35;;;;;;;35.60;19.10;;;2.40;99.90;;;;;;5071789;28;20196;-77
2022/12/01 07:30:03;;;;;;;37.67;19.07;;;2.40;99.90;;;;;;5071815;28;20619;-76
2022/12/01 07:32:30;;;;;;;37.27;18.07;;;2.40;99.90;;;;;;5087490;28;20241;-77
2022/12/01 07:34:57;;;;;;;38.43;19.70;;;2.50;99.90;;;;;;5071624;28;20201;-77
2022/12/01 07:37:24;;;;;;;37.60;19.20;;;2.40;99.90;;;;;;5085494;28;20194;-79
2022/12/01 07:39:51;;;;;;;38.40;19.43;;;2.50;99.90;;;;;;5071264;28;20240;-78
2022/12/01 07:42:18;;;;;;;35.70;18.57;;;2.50;99.90;;;;;;5071556;28;20714;-77
2022/12/01 07:44:46;;;;;;;42.13;20.20;;;2.50;99.90;;;;;;5071399;28;20196;-77
2022/12/01 07:47:14;;;;;;;39.30;20.80;;;2.50;99.90;;;;;;5071518;28;20192;-78
2022/12/01 07:49:41;;;;;;;36.83;20.10;;;2.50;99.90;;;;;;5071026;28;20223;-76
2022/12/01 07:52:08;;;;;;;38.60;19.77;;;2.50;99.90;;;;;;5071002;28;20552;-76
2022/12/01 07:54:35;;;;;;;37.10;18.70;;;2.60;99.90;;;;;;5071312;28;20199;-79
2022/12/01 07:57:02;;;;;;;42.43;20.43;;;2.60;99.90;;;;;;5074786;28;20194;-76
2022/12/01 07:59:30;;;;;;;39.57;19.37;;;2.60;99.90;;;;;;5074529;28;20203;-78
2022/12/01 08:01:59;;;;;;;40.10;19.87;;;2.60;99.90;;;;;;5074448;28;20256;-76
2022/12/01 08:04:26;;;;;;;44.57;20.87;;;2.60;99.90;;;;;;5074913;28;20555;-76
2022/12/01 08:06:53;;;;;;;42.57;20.60;;;2.60;99.90;;;;;;5074718;28;20221;-78
2022/12/01 08:09:20;;;;;;;37.83;19.30;;;2.70;99.90;;;;;;5084697;28;20221;-75
2022/12/01 08:11:47;;;;;;;41.30;19.93;;;2.70;99.90;;;;;;5094921;28;20194;-75
2022/12/01 08:14:14;;;;;;;42.87;20.70;;;2.70;99.90;;;;;;5084463;28;20644;-77
2022/12/01 08:16:41;;;;;;;40.27;19.93;;;2.70;99.90;;;;;;5074562;28;20195;-78
2022/12/01 08:19:11;;;;;;;40.40;20.73;;;2.70;99.90;;;;;;5074299;28;20694;-76
2022/12/01 08:21:39;;;;;;;40.63;20.17;;;2.70;99.90;;;;;;5076111;28;20200;-75
2022/12/01 08:24:06;;;;;;;42.17;20.97;;;2.80;99.90;;;;;;5087381;28;20242;-75
2022/12/01 08:26:33;;;;;;;43.77;20.47;;;2.80;99.90;;;;;;5074589;28;20332;-76
2022/12/01 08:29:00;;;;;;;38.57;20.27;;;2.80;99.90;;;;;;5074441;28;20612;-75
2022/12/01 08:31:30;;;;;;;38.97;19.57;;;2.80;99.90;;;;;;5074462;28;20199;-75
2022/12/01 08:33:57;;;;;;;43.53;21.00;;;2.90;99.90;;;;;;5073950;28;20196;-76
2022/12/01 08:36:26;;;;;;;41.07;20.87;;;2.90;99.90;;;;;;5080282;28;20535;-75
2022/12/01 08:38:55;;;;;;;42.93;19.70;;;2.90;99.90;;;;;;5081442;28;20200;-75
2022/12/01 08:41:23;;;;;;;38.80;20.47;;;2.90;99.90;;;;;;5088124;28;20188;-75
2022/12/01 08:43:50;;;;;;;42.57;20.90;;;3.00;99.90;;;;;;5074108;28;20193;-77
2022/12/01 08:46:17;;;;;;;43.37;19.87;;;3.00;99.90;;;;;;5073958;28;20200;-75
2022/12/01 08:48:44;;;;;;;39.50;19.97;;;3.00;99.90;;;;;;5074013;28;20570;-75
2022/12/01 08:51:13;;;;;;;41.00;19.90;;;3.00;99.90;;;;;;5073422;28;20707;-76
2022/12/01 08:53:43;;;;;;;41.60;21.17;;;3.10;99.90;;;;;;5073684;28;20542;-75
2022/12/01 08:56:13;;;;;;;39.27;19.87;;;3.10;99.90;;;;;;5073774;28;20186;-76
2022/12/01 08:58:40;;;;;;;38.50;20.10;;;3.20;99.90;;;;;;5073991;28;20201;-76
2022/12/01 09:01:08;;;;;;;40.57;21.03;;;3.20;99.90;;;;;;5073744;28;20206;-79
2022/12/01 09:03:36;;;;;;;39.97;20.93;;;3.30;99.90;;;;;;5073938;28;20249;-77
2022/12/01 09:06:05;;;;;;;39.93;20.90;;;3.30;99.90;;;;;;5073401;28;20205;-75
2022/12/01 09:08:33;;;;;;;39.93;20.10;;;3.40;99.90;;;;;;5072652;28;20601;-76
2022/12/01 09:11:04;;;;;;;38.17;19.87;;;3.40;99.90;;;;;;5073371;28;20269;-75
2022/12/01 09:13:32;;;;;;;40.73;20.57;;;3.50;97.10;;;;;;5073374;28;20657;-78
2022/12/01 09:16:01;;;;;;;40.93;20.90;;;3.60;77.10;;;;;;5073171;28;20191;-79
2022/12/01 09:18:29;;;;;;;38.53;19.87;;;3.70;43.80;;;;;;5072985;28;20191;-75
2022/12/01 09:20:57;;;;;;;39.13;21.17;;;3.80;10.90;;;;;;5073171;28;20193;-77
2022/12/01 09:23:24;;;;;;;38.57;21.03;;;3.80;1.00;;;;;;5073225;28;20208;-75
2022/12/01 09:25:53;;;;;;;40.73;20.93;;;3.90;1.00;;;;;;5073362;28;20278;-75
2022/12/01 09:28:21;;;;;;;43.23;21.13;;;3.90;1.00;;;;;;5086852;28;20191;-77
2022/12/01 09:30:48;;;;;;;41.90;21.70;;;4.00;1.00;;;;;;5072733;28;20605;-78
2022/12/01 09:33:15;;;;;;;41.73;20.73;;;4.10;1.00;;;;;;5085119;28;20194;-77
2022/12/01 09:35:42;;;;;;;41.33;20.60;;;4.10;1.00;;;;;;5090617;28;20199;-77
2022/12/01 09:38:09;;;;;;;38.30;20.40;;;4.20;1.00;;;;;;5086774;28;20192;-82
2022/12/01 09:40:38;;;;;;;40.37;20.67;;;4.30;1.00;;;;;;5073206;28;20199;-76
2022/12/01 09:43:11;;;;;;;39.90;20.80;;;4.30;1.00;;;;;;5072672;28;20196;-79
2022/12/01 09:45:44;;;;;;;40.10;20.60;;;4.40;1.00;;;;;;5072873;28;20694;-77
2022/12/01 09:48:22;;;;;;;36.07;17.77;;;4.40;1.00;;;;;;5072417;28;20199;-80
2022/12/01 09:50:49;;;;;;;37.53;19.20;;;4.40;1.00;;;;;;5072582;28;20227;-76
2022/12/01 09:53:20;;;;;;;38.13;20.60;;;4.40;1.00;;;;;;5072603;28;20191;-80
2022/12/01 09:55:47;;;;;;;36.70;19.27;;;4.40;1.00;;;;;;5072684;28;20196;-77
2022/12/01 09:58:18;;;;;;;40.87;21.07;;;4.40;1.00;;;;;;5072219;28;20192;-76
2022/12/01 10:00:48;;;;;;;38.37;20.10;;;4.40;1.00;;;;;;5072621;28;20207;-77
2022/12/01 10:03:25;;;;;;;33.70;18.13;;;4.40;1.00;;;;;;5072977;28;20215;-77
2022/12/01 10:05:55;;;;;;;37.30;19.43;;;4.40;1.00;;;;;;5072324;28;20200;-76
2022/12/01 10:08:26;;;;;;;37.93;19.37;;;4.50;1.00;;;;;;5072021;28;20583;-77
2022/12/01 10:10:56;;;;;;;38.23;20.47;;;4.50;1.00;;;;;;5072147;28;20203;-77
2022/12/01 10:13:25;;;;;;;37.83;19.90;;;4.50;1.00;;;;;;5072355;28;20191;-80
2022/12/01 10:16:00;;;;;;;35.00;19.23;;;4.50;1.00;;;;;;5072000;28;20654;-77
2022/12/01 10:18:38;;;;;;;41.37;20.70;;;4.50;1.00;;;;;;5071819;28;20198;-80
2022/12/01 10:21:13;;;;;;;34.30;19.10;;;4.50;1.00;;;;;;5072358;28;20569;-80
2022/12/01 10:24:12;;;;;;;37.53;20.20;;;4.50;1.00;;;;;;5072128;28;20184;-77
2022/12/01 10:26:50;;;;;;;36.13;19.13;;;4.40;1.00;;;;;;5072587;28;20257;-77
2022/12/01 10:29:27;;;;;;;37.40;20.23;;;4.40;1.00;;;;;;5079584;28;20675;-77
2022/12/01 10:31:57;;;;;;;39.47;20.70;;;4.40;1.00;;;;;;5077316;28;20280;-77
2022/12/01 10:34:27;;;;;;;35.87;19.33;;;4.40;1.00;;;;;;5071816;28;20256;-77
2022/12/01 10:36:55;;;;;;;41.50;20.97;;;4.40;1.00;;;;;;5082237;28;20199;-76
2022/12/01 10:39:28;;;;;;;38.07;18.93;;;4.40;1.00;;;;;;5075509;28;20206;-77
2022/12/01 10:42:02;;;;;;;37.63;20.00;;;4.30;1.00;;;;;;5071977;28;20199;-76
2022/12/01 10:44:29;;;;;;;36.73;18.63;;;4.20;1.00;;;;;;5071626;28;20673;-80
2022/12/01 10:46:58;;;;;;;35.63;19.37;;;4.20;1.00;;;;;;5072004;28;20250;-76
2022/12/01 10:49:36;;;;;;;37.17;18.73;;;4.10;1.00;;;;;;5071788;28;20266;-81
2022/12/01 10:52:04;;;;;;;39.77;19.57;;;4.10;1.00;;;;;;5072048;28;20203;-76
2022/12/01 10:54:37;;;;;;;38.90;19.70;;;4.10;1.00;;;;;;5071785;28;20195;-76
2022/12/01 10:57:06;;;;;;;33.93;18.87;;;4.10;1.00;;;;;;5071558;28;20192;-76
2022/12/01 10:59:37;;;;;;;37.03;19.40;;;4.10;1.00;;;;;;5071440;28;20194;-77
2022/12/01 11:02:15;;;;;;;38.53;20.70;;;4.00;1.00;;;;;;5071983;28;20180;-78
2022/12/01 11:04:46;;;;;;;35.60;19.07;;;4.00;1.00;;;;;;5072998;28;20187;-80
2022/12/01 11:07:19;;;;;;;33.40;18.37;;;4.00;1.00;;;;;;5084218;28;20654;-81
2022/12/01 11:09:54;;;;;;;35.20;19.10;;;4.00;1.00;;;;;;5071375;28;20755;-81
2022/12/01 11:12:21;;;;;;;37.07;19.73;;;4.00;1.00;;;;;;5071470;28;20196;-76
2022/12/01 11:14:51;;;;;;;37.53;20.70;;;3.90;1.00;;;;;;5071728;28;20653;-77
2022/12/01 11:17:28;;;;;;;39.07;19.63;;;3.90;1.00;;;;;;5085506;28;20199;-77
2022/12/01 11:19:55;;;;;;;38.47;20.57;;;3.90;1.00;;;;;;5071631;28;20202;-77
2022/12/01 11:22:24;;;;;;;39.70;20.57;;;3.90;1.00;;;;;;5071386;28;20199;-76
2022/12/01 11:25:01;;;;;;;38.73;20.50;;;3.90;1.00;;;;;;5071455;28;20834;-77
2022/12/01 11:27:32;;;;;;;35.13;19.93;;;3.80;1.00;;;;;;5071209;28;20192;-77
2022/12/01 11:30:04;;;;;;;40.93;19.63;;;3.80;1.00;;;;;;5071930;28;20673;-76
2022/12/01 11:32:35;;;;;;;37.50;20.53;;;3.80;1.00;;;;;;5075592;28;20188;-77
2022/12/01 11:35:06;;;;;;;34.17;18.97;;;3.80;1.00;;;;;;5075226;28;20188;-80
2022/12/01 11:37:38;;;;;;;36.83;18.90;;;3.90;1.00;;;;;;5089129;28;20183;-79
2022/12/01 11:40:16;;;;;;;34.37;18.97;;;3.80;1.00;;;;;;5075408;28;20188;-76
2022/12/01 11:42:49;;;;;;;35.40;19.10;;;3.80;1.00;;;;;;5075483;28;20192;-81
2022/12/01 11:45:26;;;;;;;37.43;19.33;;;3.80;1.00;;;;;;5075541;28;20204;-76
2022/12/01 11:48:04;;;;;;;33.90;19.13;;;3.80;1.00;;;;;;5077841;28;20242;-77
2022/12/01 11:50:33;;;;;;;35.90;18.57;;;3.80;1.00;;;;;;5085332;28;20322;-76
2022/12/01 11:53:00;;;;;;;31.03;17.00;;;3.90;1.00;;;;;;5101367;28;20207;-77
2022/12/01 11:55:29;;;;;;;30.90;17.80;;;3.90;1.00;;;;;;5096236;28;20195;-78
2022/12/01 11:57:59;;;;;;;32.93;18.30;;;4.00;1.00;;;;;;5095127;28;20192;-78
2022/12/01 12:00:29;;;;;;;31.37;17.40;;;4.00;1.00;;;;;;5085795;28;20219;-75
2022/12/01 12:03:12;;;;;;;26.83;14.83;;;4.00;1.00;;;;;;5078522;28;20227;-75
2022/12/01 12:05:49;;;;;;;30.53;16.37;;;4.10;1.00;;;;;;5086937;28;20680;-78
2022/12/01 12:08:28;;;;;;;26.40;15.47;;;4.10;99.90;;;;;;5087698;28;20188;-76
2022/12/01 12:11:07;;;;;;;32.07;16.67;;;4.20;1.00;;;;;;5074664;28;20204;-76
2022/12/01 12:13:58;;;;;;;27.23;14.27;;;4.30;99.90;;;;;;5074531;28;20199;-79
2022/12/01 12:16:32;;;;;;;23.07;13.60;;;4.30;99.90;;;;;;5064134;28;20703;-76
2022/12/01 12:19:20;;;;;;;26.73;15.13;;;4.30;99.90;;;;;;5074419;28;20196;-76
2022/12/01 12:22:00;;;;;;;25.20;14.20;;;4.30;99.90;;;;;;5098035;28;20171;-77
2022/12/01 12:24:48;;;;;;;23.63;13.77;;;4.30;99.90;;;;;;5094437;28;20221;-80
2022/12/01 12:27:23;;;;;;;26.63;14.10;;;4.30;99.90;;;;;;5086349;28;20200;-75
2022/12/01 12:30:02;;;;;;;23.73;14.13;;;4.30;99.90;;;;;;5074435;28;20212;-75
2022/12/01 12:32:42;;;;;;;24.20;14.57;;;4.20;99.90;;;;;;5074126;28;20191;-76
2022/12/01 12:35:26;;;;;;;23.47;15.03;;;4.10;99.90;;;;;;5074247;28;20188;-75
2022/12/01 12:38:02;;;;;;;27.80;15.43;;;4.00;99.90;;;;;;5088135;28;20245;-75
2022/12/01 12:40:40;;;;;;;28.10;15.17;;;4.00;99.90;;;;;;5077961;28;20676;-78
2022/12/01 12:43:23;;;;;;;24.87;15.00;;;4.00;99.90;;;;;;5072536;28;20653;-76
2022/12/01 12:46:17;;;;;;;27.10;15.43;;;4.00;99.90;;;;;;5074432;28;20213;-76
2022/12/01 12:49:10;;;;;;;26.00;15.27;;;4.00;99.90;;;;;;5089172;28;20260;-78
2022/12/01 12:51:44;;;;;;;25.90;14.87;;;3.90;99.90;;;;;;5095795;28;20227;-76
2022/12/01 12:54:23;;;;;;;28.80;16.13;;;3.90;99.90;;;;;;5078517;28;20196;-77
2022/12/01 12:56:55;;;;;;;26.63;15.40;;;3.90;99.90;;;;;;5073877;28;20195;-77
2022/12/01 12:59:26;;;;;;;26.57;15.40;;;3.90;99.90;;;;;;5073652;28;20195;-80